sensor_id;sensor_type;location;lat;lon;timestamp;P1;durP1;ratioP1;P2;durP2;ratioP2
59689;SDS011;45557;50.298;18.930;2022-10-31T00:06:02;20.70;;;13.00;;
59689;SDS011;45557;50.298;18.930;2022-10-31T00:13:42;19.10;;;12.60;;
59689;SDS011;45557;50.298;18.930;2022-10-31T00:21:00;19.20;;;12.40;;
59689;SDS011;45557;50.298;18.930;2022-10-31T00:28:38;21.70;;;12.70;;
59689;SDS011;45557;50.298;18.930;2022-10-31T00:36:01;19.80;;;12.80;;
59689;SDS011;45557;50.298;18.930;2022-10-31T00:43:47;23.60;;;14.10;;
59689;SDS011;45557;50.298;18.930;2022-10-31T00:51:37;20.30;;;13.50;;
59689;SDS011;45557;50.298;18.930;2022-10-31T00:59:21;22.00;;;12.50;;
59689;SDS011;45557;50.298;18.930;2022-10-31T01:14:08;23.20;;;13.10;;
59689;SDS011;45557;50.298;18.930;2022-10-31T01:21:22;20.70;;;12.70;;
59689;SDS011;45557;50.298;18.930;2022-10-31T01:28:42;24.30;;;12.40;;
59689;SDS011;45557;50.298;18.930;2022-10-31T01:35:27;21.80;;;13.70;;
59689;SDS011;45557;50.298;18.930;2022-10-31T01:42:21;20.00;;;13.20;;
59689;SDS011;45557;50.298;18.930;2022-10-31T01:56:55;21.60;;;13.90;;
59689;SDS011;45557;50.298;18.930;2022-10-31T02:03:40;22.00;;;12.10;;
59689;SDS011;45557;50.298;18.930;2022-10-31T02:10:26;19.90;;;12.70;;
59689;SDS011;45557;50.298;18.930;2022-10-31T02:18:04;20.30;;;12.30;;
59689;SDS011;45557;50.298;18.930;2022-10-31T02:39:26;22.60;;;12.90;;
59689;SDS011;45557;50.298;18.930;2022-10-31T02:53:08;20.90;;;13.00;;
59689;SDS011;45557;50.298;18.930;2022-10-31T03:00:29;23.00;;;13.40;;
59689;SDS011;45557;50.298;18.930;2022-10-31T03:14:42;20.20;;;12.90;;
59689;SDS011;45557;50.298;18.930;2022-10-31T03:27:52;19.80;;;12.90;;
59689;SDS011;45557;50.298;18.930;2022-10-31T03:35:42;20.30;;;12.90;;
59689;SDS011;45557;50.298;18.930;2022-10-31T03:43:21;20.90;;;13.60;;
59689;SDS011;45557;50.298;18.930;2022-10-31T03:50:54;22.40;;;14.00;;
59689;SDS011;45557;50.298;18.930;2022-10-31T03:58:41;24.40;;;14.20;;
59689;SDS011;45557;50.298;18.930;2022-10-31T04:05:28;20.60;;;13.30;;
59689;SDS011;45557;50.298;18.930;2022-10-31T04:13:19;25.90;;;13.50;;
59689;SDS011;45557;50.298;18.930;2022-10-31T04:36:02;22.50;;;14.20;;
59689;SDS011;45557;50.298;18.930;2022-10-31T04:43:46;22.60;;;15.20;;
59689;SDS011;45557;50.298;18.930;2022-10-31T05:05:29;23.30;;;13.70;;
59689;SDS011;45557;50.298;18.930;2022-10-31T05:12:08;22.40;;;14.80;;
59689;SDS011;45557;50.298;18.930;2022-10-31T05:26:20;26.00;;;16.70;;
59689;SDS011;45557;50.298;18.930;2022-10-31T05:33:35;26.10;;;19.40;;
59689;SDS011;45557;50.298;18.930;2022-10-31T05:55:56;23.70;;;15.50;;
59689;SDS011;45557;50.298;18.930;2022-10-31T06:18:34;24.50;;;17.30;;
59689;SDS011;45557;50.298;18.930;2022-10-31T06:25:20;27.80;;;19.20;;
59689;SDS011;45557;50.298;18.930;2022-10-31T06:30:43;28.60;;;18.70;;
59689;SDS011;45557;50.298;18.930;2022-10-31T06:36:42;28.00;;;21.10;;
59689;SDS011;45557;50.298;18.930;2022-10-31T06:42:38;26.60;;;17.90;;
59689;SDS011;45557;50.298;18.930;2022-10-31T06:48:25;25.40;;;17.50;;
59689;SDS011;45557;50.298;18.930;2022-10-31T06:54:07;35.60;;;24.20;;
59689;SDS011;45557;50.298;18.930;2022-10-31T07:11:29;40.50;;;22.50;;
59689;SDS011;45557;50.298;18.930;2022-10-31T07:24:55;27.10;;;17.10;;
59689;SDS011;45557;50.298;18.930;2022-10-31T07:30:36;20.80;;;12.70;;
59689;SDS011;45557;50.298;18.930;2022-10-31T07:36:39;19.10;;;11.70;;
59689;SDS011;45557;50.298;18.930;2022-10-31T07:43:03;17.20;;;9.90;;
59689;SDS011;45557;50.298;18.930;2022-10-31T07:49:43;18.40;;;11.90;;
59689;SDS011;45557;50.298;18.930;2022-10-31T07:55:29;18.90;;;11.90;;
59689;SDS011;45557;50.298;18.930;2022-10-31T08:00:58;19.00;;;12.40;;
59689;SDS011;45557;50.298;18.930;2022-10-31T08:06:35;17.30;;;10.50;;
59689;SDS011;45557;50.298;18.930;2022-10-31T08:12:42;18.10;;;10.90;;
59689;SDS011;45557;50.298;18.930;2022-10-31T08:18:04;15.50;;;9.00;;
59689;SDS011;45557;50.298;18.930;2022-10-31T08:24:11;21.00;;;9.70;;
59689;SDS011;45557;50.298;18.930;2022-10-31T08:30:53;20.70;;;10.60;;
59689;SDS011;45557;50.298;18.930;2022-10-31T08:36:55;19.30;;;9.90;;
59689;SDS011;45557;50.298;18.930;2022-10-31T08:42:47;19.10;;;9.10;;
59689;SDS011;45557;50.298;18.930;2022-10-31T08:48:20;14.50;;;9.10;;
59689;SDS011;45557;50.298;18.930;2022-10-31T08:53:44;17.50;;;9.40;;
59689;SDS011;45557;50.298;18.930;2022-10-31T08:59:30;18.60;;;9.30;;
59689;SDS011;45557;50.298;18.930;2022-10-31T09:05:22;17.60;;;10.60;;
59689;SDS011;45557;50.298;18.930;2022-10-31T09:10:44;17.50;;;11.20;;
59689;SDS011;45557;50.298;18.930;2022-10-31T09:16:10;17.80;;;10.80;;
59689;SDS011;45557;50.298;18.930;2022-10-31T09:21:32;20.60;;;10.60;;
59689;SDS011;45557;50.298;18.930;2022-10-31T09:27:03;18.60;;;10.20;;
59689;SDS011;45557;50.298;18.930;2022-10-31T09:33:11;17.00;;;10.10;;
59689;SDS011;45557;50.298;18.930;2022-10-31T09:38:42;23.40;;;12.30;;
59689;SDS011;45557;50.298;18.930;2022-10-31T09:51:42;23.80;;;13.30;;
59689;SDS011;45557;50.298;18.930;2022-10-31T09:58:29;17.80;;;12.00;;
59689;SDS011;45557;50.298;18.930;2022-10-31T10:05:18;21.20;;;13.20;;
59689;SDS011;45557;50.298;18.930;2022-10-31T10:10:51;19.30;;;11.70;;
59689;SDS011;45557;50.298;18.930;2022-10-31T10:23:22;18.30;;;10.60;;
59689;SDS011;45557;50.298;18.930;2022-10-31T10:30:07;20.50;;;11.30;;
59689;SDS011;45557;50.298;18.930;2022-10-31T10:43:33;16.80;;;8.20;;
59689;SDS011;45557;50.298;18.930;2022-10-31T10:49:52;18.90;;;9.10;;
59689;SDS011;45557;50.298;18.930;2022-10-31T10:56:44;13.80;;;7.60;;
59689;SDS011;45557;50.298;18.930;2022-10-31T11:03:23;15.20;;;7.60;;
59689;SDS011;45557;50.298;18.930;2022-10-31T11:10:04;13.10;;;8.30;;
59689;SDS011;45557;50.298;18.930;2022-10-31T11:16:13;14.70;;;8.60;;
59689;SDS011;45557;50.298;18.930;2022-10-31T11:23:00;15.10;;;8.70;;
59689;SDS011;45557;50.298;18.930;2022-10-31T11:28:56;15.70;;;9.00;;
59689;SDS011;45557;50.298;18.930;2022-10-31T11:34:33;17.70;;;9.70;;
59689;SDS011;45557;50.298;18.930;2022-10-31T11:40:24;15.10;;;9.10;;
59689;SDS011;45557;50.298;18.930;2022-10-31T11:45:49;15.40;;;7.90;;
59689;SDS011;45557;50.298;18.930;2022-10-31T11:51:13;15.70;;;8.00;;
59689;SDS011;45557;50.298;18.930;2022-10-31T11:56:43;18.20;;;8.50;;
59689;SDS011;45557;50.298;18.930;2022-10-31T12:02:22;14.80;;;8.00;;
59689;SDS011;45557;50.298;18.930;2022-10-31T12:08:11;14.70;;;7.30;;
59689;SDS011;45557;50.298;18.930;2022-10-31T12:25:40;16.70;;;9.10;;
59689;SDS011;45557;50.298;18.930;2022-10-31T12:50:12;13.30;;;6.90;;
59689;SDS011;45557;50.298;18.930;2022-10-31T13:02:29;12.90;;;7.20;;
59689;SDS011;45557;50.298;18.930;2022-10-31T13:08:06;13.50;;;7.50;;
59689;SDS011;45557;50.298;18.930;2022-10-31T13:13:52;12.40;;;7.20;;
59689;SDS011;45557;50.298;18.930;2022-10-31T13:19:50;13.90;;;7.60;;
59689;SDS011;45557;50.298;18.930;2022-10-31T13:25:17;14.00;;;6.90;;
59689;SDS011;45557;50.298;18.930;2022-10-31T13:31:04;12.50;;;6.50;;
59689;SDS011;45557;50.298;18.930;2022-10-31T13:42:04;11.90;;;6.20;;
59689;SDS011;45557;50.298;18.930;2022-10-31T13:47:58;12.70;;;6.70;;
59689;SDS011;45557;50.298;18.930;2022-10-31T13:53:36;13.70;;;6.50;;
59689;SDS011;45557;50.298;18.930;2022-10-31T13:59:23;13.20;;;6.10;;
59689;SDS011;45557;50.298;18.930;2022-10-31T14:04:49;11.50;;;6.00;;
59689;SDS011;45557;50.298;18.930;2022-10-31T14:10:21;12.60;;;5.70;;
59689;SDS011;45557;50.298;18.930;2022-10-31T14:15:57;11.70;;;5.70;;
59689;SDS011;45557;50.298;18.930;2022-10-31T14:26:55;12.30;;;6.00;;
59689;SDS011;45557;50.298;18.930;2022-10-31T14:32:22;13.80;;;6.40;;
59689;SDS011;45557;50.298;18.930;2022-10-31T14:55:05;10.20;;;6.60;;
59689;SDS011;45557;50.298;18.930;2022-10-31T15:00:32;16.90;;;9.30;;
59689;SDS011;45557;50.298;18.930;2022-10-31T15:06:11;18.70;;;8.40;;
59689;SDS011;45557;50.298;18.930;2022-10-31T15:11:44;17.10;;;7.30;;
59689;SDS011;45557;50.298;18.930;2022-10-31T15:17:15;15.00;;;8.80;;
59689;SDS011;45557;50.298;18.930;2022-10-31T15:23:04;18.50;;;11.00;;
59689;SDS011;45557;50.298;18.930;2022-10-31T15:29:31;26.00;;;15.30;;
59689;SDS011;45557;50.298;18.930;2022-10-31T15:34:53;18.10;;;10.10;;
59689;SDS011;45557;50.298;18.930;2022-10-31T15:40:20;36.30;;;19.40;;
59689;SDS011;45557;50.298;18.930;2022-10-31T15:45:44;24.20;;;15.90;;
59689;SDS011;45557;50.298;18.930;2022-10-31T15:51:07;32.50;;;21.20;;
59689;SDS011;45557;50.298;18.930;2022-10-31T15:56:54;25.50;;;14.30;;
59689;SDS011;45557;50.298;18.930;2022-10-31T16:02:37;24.30;;;14.90;;
59689;SDS011;45557;50.298;18.930;2022-10-31T16:08:44;29.10;;;19.20;;
59689;SDS011;45557;50.298;18.930;2022-10-31T16:14:45;39.00;;;27.50;;
59689;SDS011;45557;50.298;18.930;2022-10-31T16:21:09;32.70;;;19.10;;
59689;SDS011;45557;50.298;18.930;2022-10-31T16:27:17;55.00;;;39.30;;
59689;SDS011;45557;50.298;18.930;2022-10-31T16:39:55;44.60;;;26.60;;
59689;SDS011;45557;50.298;18.930;2022-10-31T16:46:08;41.30;;;24.70;;
59689;SDS011;45557;50.298;18.930;2022-10-31T16:52:49;65.50;;;45.20;;
59689;SDS011;45557;50.298;18.930;2022-10-31T16:59:31;56.10;;;34.20;;
59689;SDS011;45557;50.298;18.930;2022-10-31T17:05:54;53.60;;;37.30;;
59689;SDS011;45557;50.298;18.930;2022-10-31T17:12:38;54.10;;;32.50;;
59689;SDS011;45557;50.298;18.930;2022-10-31T17:19:01;65.90;;;42.10;;
59689;SDS011;45557;50.298;18.930;2022-10-31T17:25:13;55.60;;;38.00;;
59689;SDS011;45557;50.298;18.930;2022-10-31T17:31:22;74.10;;;47.60;;
59689;SDS011;45557;50.298;18.930;2022-10-31T17:37:47;52.40;;;36.00;;
59689;SDS011;45557;50.298;18.930;2022-10-31T17:44:29;40.40;;;26.40;;
59689;SDS011;45557;50.298;18.930;2022-10-31T17:50:41;40.10;;;21.90;;
59689;SDS011;45557;50.298;18.930;2022-10-31T17:57:24;46.00;;;24.60;;
59689;SDS011;45557;50.298;18.930;2022-10-31T18:03:46;41.40;;;24.50;;
59689;SDS011;45557;50.298;18.930;2022-10-31T18:09:50;41.30;;;22.60;;
59689;SDS011;45557;50.298;18.930;2022-10-31T18:15:59;34.30;;;21.70;;
59689;SDS011;45557;50.298;18.930;2022-10-31T18:22:03;32.10;;;23.40;;
59689;SDS011;45557;50.298;18.930;2022-10-31T18:28:16;35.60;;;22.00;;
59689;SDS011;45557;50.298;18.930;2022-10-31T18:34:39;38.00;;;22.50;;
59689;SDS011;45557;50.298;18.930;2022-10-31T18:41:05;38.50;;;25.50;;
59689;SDS011;45557;50.298;18.930;2022-10-31T18:47:28;46.30;;;32.30;;
59689;SDS011;45557;50.298;18.930;2022-10-31T18:53:53;38.30;;;23.20;;
59689;SDS011;45557;50.298;18.930;2022-10-31T19:00:15;40.80;;;25.40;;
59689;SDS011;45557;50.298;18.930;2022-10-31T19:06:04;76.50;;;42.20;;
59689;SDS011;45557;50.298;18.930;2022-10-31T19:11:56;51.40;;;33.20;;
59689;SDS011;45557;50.298;18.930;2022-10-31T19:17:41;62.40;;;39.50;;
59689;SDS011;45557;50.298;18.930;2022-10-31T19:24:23;62.80;;;39.00;;
59689;SDS011;45557;50.298;18.930;2022-10-31T19:30:52;58.90;;;35.30;;
59689;SDS011;45557;50.298;18.930;2022-10-31T19:36:54;48.80;;;31.10;;
59689;SDS011;45557;50.298;18.930;2022-10-31T19:42:42;60.60;;;38.90;;
59689;SDS011;45557;50.298;18.930;2022-10-31T19:49:24;75.00;;;51.10;;
59689;SDS011;45557;50.298;18.930;2022-10-31T19:55:47;73.40;;;49.40;;
59689;SDS011;45557;50.298;18.930;2022-10-31T20:02:02;76.60;;;52.60;;
59689;SDS011;45557;50.298;18.930;2022-10-31T20:07:47;72.70;;;45.50;;
59689;SDS011;45557;50.298;18.930;2022-10-31T20:13:46;70.20;;;43.10;;
59689;SDS011;45557;50.298;18.930;2022-10-31T20:20:08;67.50;;;45.50;;
59689;SDS011;45557;50.298;18.930;2022-10-31T20:26:52;69.00;;;49.20;;
59689;SDS011;45557;50.298;18.930;2022-10-31T20:32:55;115.90;;;89.30;;
59689;SDS011;45557;50.298;18.930;2022-10-31T20:39:05;96.50;;;69.40;;
59689;SDS011;45557;50.298;18.930;2022-10-31T20:45:25;87.90;;;59.00;;
59689;SDS011;45557;50.298;18.930;2022-10-31T20:51:23;89.60;;;57.80;;
59689;SDS011;45557;50.298;18.930;2022-10-31T20:57:30;84.60;;;59.70;;
59689;SDS011;45557;50.298;18.930;2022-10-31T21:03:53;109.20;;;69.10;;
59689;SDS011;45557;50.298;18.930;2022-10-31T21:10:17;111.60;;;74.60;;
59689;SDS011;45557;50.298;18.930;2022-10-31T21:16:39;120.70;;;73.60;;
59689;SDS011;45557;50.298;18.930;2022-10-31T21:28:06;136.00;;;80.00;;
59689;SDS011;45557;50.298;18.930;2022-10-31T21:34:12;120.50;;;72.40;;
59689;SDS011;45557;50.298;18.930;2022-10-31T21:40:16;77.10;;;52.80;;
59689;SDS011;45557;50.298;18.930;2022-10-31T21:46:36;78.90;;;51.30;;
59689;SDS011;45557;50.298;18.930;2022-10-31T21:52:19;78.90;;;51.90;;
59689;SDS011;45557;50.298;18.930;2022-10-31T21:57:42;74.20;;;48.80;;
59689;SDS011;45557;50.298;18.930;2022-10-31T22:03:40;64.10;;;45.00;;
59689;SDS011;45557;50.298;18.930;2022-10-31T22:10:05;73.70;;;50.90;;
59689;SDS011;45557;50.298;18.930;2022-10-31T22:16:49;65.10;;;47.20;;
59689;SDS011;45557;50.298;18.930;2022-10-31T22:23:12;77.10;;;52.20;;
59689;SDS011;45557;50.298;18.930;2022-10-31T22:29:56;70.00;;;48.50;;
59689;SDS011;45557;50.298;18.930;2022-10-31T22:36:02;75.60;;;52.80;;
59689;SDS011;45557;50.298;18.930;2022-10-31T22:42:32;81.90;;;56.60;;
59689;SDS011;45557;50.298;18.930;2022-10-31T22:49:14;81.10;;;53.40;;
59689;SDS011;45557;50.298;18.930;2022-10-31T22:55:56;80.60;;;55.20;;
59689;SDS011;45557;50.298;18.930;2022-10-31T23:02:43;78.00;;;53.20;;
59689;SDS011;45557;50.298;18.930;2022-10-31T23:09:24;72.40;;;50.70;;
59689;SDS011;45557;50.298;18.930;2022-10-31T23:15:42;69.40;;;50.80;;
59689;SDS011;45557;50.298;18.930;2022-10-31T23:22:26;78.60;;;53.20;;
59689;SDS011;45557;50.298;18.930;2022-10-31T23:28:54;66.50;;;48.40;;
59689;SDS011;45557;50.298;18.930;2022-10-31T23:35:18;73.40;;;52.00;;
59689;SDS011;45557;50.298;18.930;2022-10-31T23:41:19;74.60;;;51.00;;
59689;SDS011;45557;50.298;18.930;2022-10-31T23:46:58;72.20;;;51.40;;
59689;SDS011;45557;50.298;18.930;2022-10-31T23:52:21;71.80;;;51.70;;
59689;SDS011;45557;50.298;18.930;2022-10-31T23:57:42;72.20;;;51.20;;
